sensor_id;sensor_type;location;lat;lon;timestamp;P1;durP1;ratioP1;P2;durP2;ratioP2
15504;SDS011;7854;52.184;5.942;2023-04-02T00:03:24;15;;;14;;
15504;SDS011;7854;52.184;5.942;2023-04-02T00:03:25;14;;;13;;
15504;SDS011;7854;52.184;5.942;2023-04-02T00:05:26;21;;;17;;
15504;SDS011;7854;52.184;5.942;2023-04-02T00:07:36;15;;;14;;
15504;SDS011;7854;52.184;5.942;2023-04-02T00:09:50;13;;;12;;
15504;SDS011;7854;52.184;5.942;2023-04-02T00:12:14;13;;;12;;
15504;SDS011;7854;52.184;5.942;2023-04-02T00:16:34;14;;;12;;
15504;SDS011;7854;52.184;5.942;2023-04-02T00:18:49;11;;;9;;
15504;SDS011;7854;52.184;5.942;2023-04-02T00:21:06;13;;;12;;
15504;SDS011;7854;52.184;5.942;2023-04-02T00:23:17;14;;;13;;
15504;SDS011;7854;52.184;5.942;2023-04-02T00:25:33;13;;;12;;
15504;SDS011;7854;52.184;5.942;2023-04-02T00:27:46;14;;;12;;
15504;SDS011;7854;52.184;5.942;2023-04-02T00:30:00;14;;;12;;
15504;SDS011;7854;52.184;5.942;2023-04-02T00:32:17;12;;;11;;
15504;SDS011;7854;52.184;5.942;2023-04-02T00:34:30;11;;;11;;
15504;SDS011;7854;52.184;5.942;2023-04-02T00:36:44;11;;;11;;
15504;SDS011;7854;52.184;5.942;2023-04-02T00:38:59;14;;;13;;
15504;SDS011;7854;52.184;5.942;2023-04-02T00:41:13;15;;;14;;
15504;SDS011;7854;52.184;5.942;2023-04-02T00:43:26;14;;;13;;
15504;SDS011;7854;52.184;5.942;2023-04-02T00:45:40;13;;;12;;
15504;SDS011;7854;52.184;5.942;2023-04-02T00:47:55;13;;;12;;
15504;SDS011;7854;52.184;5.942;2023-04-02T00:50:16;15;;;13;;
15504;SDS011;7854;52.184;5.942;2023-04-02T00:52:24;14;;;13;;
15504;SDS011;7854;52.184;5.942;2023-04-02T00:54:40;13;;;11;;
15504;SDS011;7854;52.184;5.942;2023-04-02T00:56:53;12;;;11;;
15504;SDS011;7854;52.184;5.942;2023-04-02T00:59:13;12;;;11;;
15504;SDS011;7854;52.184;5.942;2023-04-02T01:01:22;12;;;11;;
15504;SDS011;7854;52.184;5.942;2023-04-02T01:03:36;12;;;11;;
15504;SDS011;7854;52.184;5.942;2023-04-02T01:05:54;11;;;10;;
15504;SDS011;7854;52.184;5.942;2023-04-02T01:08:06;14;;;12;;
15504;SDS011;7854;52.184;5.942;2023-04-02T01:10:24;11;;;11;;
15504;SDS011;7854;52.184;5.942;2023-04-02T01:12:39;14;;;11;;
15504;SDS011;7854;52.184;5.942;2023-04-02T01:17:05;10;;;10;;
15504;SDS011;7854;52.184;5.942;2023-04-02T01:19:25;12;;;11;;
15504;SDS011;7854;52.184;5.942;2023-04-02T01:21:40;10;;;9;;
15504;SDS011;7854;52.184;5.942;2023-04-02T01:23:48;10;;;9;;
15504;SDS011;7854;52.184;5.942;2023-04-02T01:26:03;19;;;10;;
15504;SDS011;7854;52.184;5.942;2023-04-02T01:28:15;9;;;8;;
15504;SDS011;7854;52.184;5.942;2023-04-02T01:30:28;11;;;11;;
15504;SDS011;7854;52.184;5.942;2023-04-02T01:32:43;11;;;10;;
15504;SDS011;7854;52.184;5.942;2023-04-02T01:34:57;11;;;10;;
15504;SDS011;7854;52.184;5.942;2023-04-02T01:37:15;12;;;11;;
15504;SDS011;7854;52.184;5.942;2023-04-02T01:39:29;10;;;9;;
15504;SDS011;7854;52.184;5.942;2023-04-02T01:41:42;11;;;10;;
15504;SDS011;7854;52.184;5.942;2023-04-02T01:43:56;11;;;10;;
15504;SDS011;7854;52.184;5.942;2023-04-02T01:46:22;8;;;8;;
15504;SDS011;7854;52.184;5.942;2023-04-02T01:48:25;11;;;9;;
15504;SDS011;7854;52.184;5.942;2023-04-02T01:50:38;12;;;11;;
15504;SDS011;7854;52.184;5.942;2023-04-02T01:52:54;11;;;10;;
15504;SDS011;7854;52.184;5.942;2023-04-02T01:55:08;10;;;9;;
15504;SDS011;7854;52.184;5.942;2023-04-02T01:57:22;11;;;10;;
15504;SDS011;7854;52.184;5.942;2023-04-02T01:59:36;12;;;11;;
15504;SDS011;7854;52.184;5.942;2023-04-02T02:01:51;12;;;11;;
15504;SDS011;7854;52.184;5.942;2023-04-02T02:04:05;11;;;10;;
15504;SDS011;7854;52.184;5.942;2023-04-02T02:06:20;12;;;11;;
15504;SDS011;7854;52.184;5.942;2023-04-02T02:08:36;11;;;10;;
15504;SDS011;7854;52.184;5.942;2023-04-02T02:10:47;10;;;9;;
15504;SDS011;7854;52.184;5.942;2023-04-02T02:13:02;8;;;8;;
15504;SDS011;7854;52.184;5.942;2023-04-02T02:15:17;8;;;8;;
15504;SDS011;7854;52.184;5.942;2023-04-02T02:17:31;7;;;7;;
15504;SDS011;7854;52.184;5.942;2023-04-02T02:19:45;45;;;7;;
15504;SDS011;7854;52.184;5.942;2023-04-02T02:22:03;8;;;7;;
15504;SDS011;7854;52.184;5.942;2023-04-02T02:24:16;9;;;8;;
15504;SDS011;7854;52.184;5.942;2023-04-02T02:26:29;7;;;7;;
15504;SDS011;7854;52.184;5.942;2023-04-02T02:28:42;10;;;9;;
15504;SDS011;7854;52.184;5.942;2023-04-02T02:30:57;9;;;8;;
15504;SDS011;7854;52.184;5.942;2023-04-02T02:33:13;9;;;9;;
15504;SDS011;7854;52.184;5.942;2023-04-02T02:35:26;9;;;8;;
15504;SDS011;7854;52.184;5.942;2023-04-02T02:37:41;8;;;8;;
15504;SDS011;7854;52.184;5.942;2023-04-02T02:39:54;10;;;10;;
15504;SDS011;7854;52.184;5.942;2023-04-02T02:42:09;11;;;10;;
15504;SDS011;7854;52.184;5.942;2023-04-02T02:44:24;12;;;10;;
15504;SDS011;7854;52.184;5.942;2023-04-02T02:46:38;9;;;8;;
15504;SDS011;7854;52.184;5.942;2023-04-02T02:48:52;11;;;10;;
15504;SDS011;7854;52.184;5.942;2023-04-02T02:51:07;11;;;10;;
15504;SDS011;7854;52.184;5.942;2023-04-02T02:53:21;12;;;11;;
15504;SDS011;7854;52.184;5.942;2023-04-02T02:55:35;15;;;10;;
15504;SDS011;7854;52.184;5.942;2023-04-02T02:57:52;12;;;11;;
15504;SDS011;7854;52.184;5.942;2023-04-02T03:00:05;11;;;10;;
15504;SDS011;7854;52.184;5.942;2023-04-02T03:02:19;11;;;9;;
15504;SDS011;7854;52.184;5.942;2023-04-02T03:06:48;11;;;10;;
15504;SDS011;7854;52.184;5.942;2023-04-02T03:09:03;11;;;9;;
15504;SDS011;7854;52.184;5.942;2023-04-02T03:11:17;9;;;8;;
15504;SDS011;7854;52.184;5.942;2023-04-02T03:13:31;9;;;9;;
15504;SDS011;7854;52.184;5.942;2023-04-02T03:15:46;9;;;8;;
15504;SDS011;7854;52.184;5.942;2023-04-02T03:18:01;9;;;8;;
15504;SDS011;7854;52.184;5.942;2023-04-02T03:20:16;10;;;8;;
15504;SDS011;7854;52.184;5.942;2023-04-02T03:22:30;8;;;8;;
15504;SDS011;7854;52.184;5.942;2023-04-02T03:24:45;7;;;6;;
15504;SDS011;7854;52.184;5.942;2023-04-02T03:26:58;6;;;6;;
15504;SDS011;7854;52.184;5.942;2023-04-02T03:29:12;12;;;8;;
15504;SDS011;7854;52.184;5.942;2023-04-02T03:31:27;8;;;7;;
15504;SDS011;7854;52.184;5.942;2023-04-02T03:33:42;7;;;6;;
15504;SDS011;7854;52.184;5.942;2023-04-02T03:35:56;7;;;7;;
15504;SDS011;7854;52.184;5.942;2023-04-02T03:38:11;8;;;7;;
15504;SDS011;7854;52.184;5.942;2023-04-02T03:40:25;7;;;7;;
15504;SDS011;7854;52.184;5.942;2023-04-02T03:42:39;14;;;7;;
15504;SDS011;7854;52.184;5.942;2023-04-02T03:44:54;16;;;7;;
15504;SDS011;7854;52.184;5.942;2023-04-02T03:47:09;8;;;7;;
15504;SDS011;7854;52.184;5.942;2023-04-02T03:49:24;8;;;6;;
15504;SDS011;7854;52.184;5.942;2023-04-02T03:51:37;6;;;5;;
15504;SDS011;7854;52.184;5.942;2023-04-02T03:53:51;5;;;5;;
15504;SDS011;7854;52.184;5.942;2023-04-02T03:56:05;6;;;5;;
15504;SDS011;7854;52.184;5.942;2023-04-02T03:58:20;5;;;5;;
15504;SDS011;7854;52.184;5.942;2023-04-02T04:00:35;5;;;5;;
15504;SDS011;7854;52.184;5.942;2023-04-02T04:02:50;6;;;5;;
15504;SDS011;7854;52.184;5.942;2023-04-02T04:05:04;4;;;4;;
15504;SDS011;7854;52.184;5.942;2023-04-02T04:07:18;5;;;5;;
15504;SDS011;7854;52.184;5.942;2023-04-02T04:09:32;4;;;4;;
15504;SDS011;7854;52.184;5.942;2023-04-02T04:11:47;7;;;5;;
15504;SDS011;7854;52.184;5.942;2023-04-02T04:14:02;9;;;4;;
15504;SDS011;7854;52.184;5.942;2023-04-02T04:16:16;3;;;3;;
15504;SDS011;7854;52.184;5.942;2023-04-02T04:18:31;2;;;2;;
15504;SDS011;7854;52.184;5.942;2023-04-02T04:20:46;4;;;2;;
15504;SDS011;7854;52.184;5.942;2023-04-02T04:23:06;3;;;3;;
15504;SDS011;7854;52.184;5.942;2023-04-02T04:25:17;4;;;3;;
15504;SDS011;7854;52.184;5.942;2023-04-02T04:27:28;6;;;2;;
15504;SDS011;7854;52.184;5.942;2023-04-02T04:29:44;3;;;3;;
15504;SDS011;7854;52.184;5.942;2023-04-02T04:31:56;3;;;3;;
15504;SDS011;7854;52.184;5.942;2023-04-02T04:34:12;12;;;3;;
15504;SDS011;7854;52.184;5.942;2023-04-02T04:36:26;9;;;3;;
15504;SDS011;7854;52.184;5.942;2023-04-02T04:38:39;3;;;3;;
15504;SDS011;7854;52.184;5.942;2023-04-02T04:40:55;16;;;3;;
15504;SDS011;7854;52.184;5.942;2023-04-02T04:43:10;2;;;2;;
15504;SDS011;7854;52.184;5.942;2023-04-02T04:45:28;10;;;3;;
15504;SDS011;7854;52.184;5.942;2023-04-02T04:47:38;3;;;3;;
15504;SDS011;7854;52.184;5.942;2023-04-02T04:49:52;2;;;2;;
15504;SDS011;7854;52.184;5.942;2023-04-02T04:52:06;10;;;3;;
15504;SDS011;7854;52.184;5.942;2023-04-02T04:54:23;4;;;3;;
15504;SDS011;7854;52.184;5.942;2023-04-02T04:56:34;7;;;3;;
15504;SDS011;7854;52.184;5.942;2023-04-02T04:58:50;3;;;3;;
15504;SDS011;7854;52.184;5.942;2023-04-02T05:01:04;3;;;3;;
15504;SDS011;7854;52.184;5.942;2023-04-02T05:03:19;3;;;2;;
15504;SDS011;7854;52.184;5.942;2023-04-02T05:05:32;4;;;3;;
15504;SDS011;7854;52.184;5.942;2023-04-02T05:07:48;3;;;2;;
15504;SDS011;7854;52.184;5.942;2023-04-02T05:10:02;2;;;2;;
15504;SDS011;7854;52.184;5.942;2023-04-02T05:12:16;2;;;2;;
15504;SDS011;7854;52.184;5.942;2023-04-02T05:14:30;2;;;2;;
15504;SDS011;7854;52.184;5.942;2023-04-02T05:16:46;4;;;2;;
15504;SDS011;7854;52.184;5.942;2023-04-02T05:19:01;5;;;2;;
15504;SDS011;7854;52.184;5.942;2023-04-02T05:21:14;3;;;2;;
15504;SDS011;7854;52.184;5.942;2023-04-02T05:23:28;2;;;2;;
15504;SDS011;7854;52.184;5.942;2023-04-02T05:25:48;4;;;2;;
15504;SDS011;7854;52.184;5.942;2023-04-02T05:27:56;1;;;1;;
15504;SDS011;7854;52.184;5.942;2023-04-02T05:30:13;2;;;1;;
15504;SDS011;7854;52.184;5.942;2023-04-02T05:32:25;1;;;1;;
15504;SDS011;7854;52.184;5.942;2023-04-02T05:34:39;2;;;2;;
15504;SDS011;7854;52.184;5.942;2023-04-02T05:36:52;2;;;1;;
15504;SDS011;7854;52.184;5.942;2023-04-02T05:39:07;2;;;2;;
15504;SDS011;7854;52.184;5.942;2023-04-02T05:41:22;6;;;2;;
15504;SDS011;7854;52.184;5.942;2023-04-02T05:43:36;2;;;2;;
15504;SDS011;7854;52.184;5.942;2023-04-02T05:45:51;2;;;2;;
15504;SDS011;7854;52.184;5.942;2023-04-02T05:48:08;1;;;1;;
15504;SDS011;7854;52.184;5.942;2023-04-02T05:50:21;1;;;1;;
15504;SDS011;7854;52.184;5.942;2023-04-02T05:52:34;21;;;2;;
15504;SDS011;7854;52.184;5.942;2023-04-02T05:54:49;2;;;1;;
15504;SDS011;7854;52.184;5.942;2023-04-02T05:57:02;3;;;2;;
15504;SDS011;7854;52.184;5.942;2023-04-02T05:59:17;2;;;1;;
15504;SDS011;7854;52.184;5.942;2023-04-02T06:01:31;2;;;1;;
15504;SDS011;7854;52.184;5.942;2023-04-02T06:03:46;1;;;1;;
15504;SDS011;7854;52.184;5.942;2023-04-02T06:06:00;1;;;1;;
15504;SDS011;7854;52.184;5.942;2023-04-02T06:08:14;4;;;1;;
15504;SDS011;7854;52.184;5.942;2023-04-02T06:10:29;2;;;2;;
15504;SDS011;7854;52.184;5.942;2023-04-02T06:12:43;2;;;2;;
15504;SDS011;7854;52.184;5.942;2023-04-02T06:14:57;1;;;1;;
15504;SDS011;7854;52.184;5.942;2023-04-02T06:17:12;1;;;1;;
15504;SDS011;7854;52.184;5.942;2023-04-02T06:19:27;1;;;1;;
15504;SDS011;7854;52.184;5.942;2023-04-02T06:21:42;1;;;1;;
15504;SDS011;7854;52.184;5.942;2023-04-02T06:23:55;1;;;1;;
15504;SDS011;7854;52.184;5.942;2023-04-02T06:26:11;1;;;1;;
15504;SDS011;7854;52.184;5.942;2023-04-02T06:28:25;5;;;1;;
15504;SDS011;7854;52.184;5.942;2023-04-02T06:30:38;2;;;1;;
15504;SDS011;7854;52.184;5.942;2023-04-02T06:32:53;18;;;2;;
15504;SDS011;7854;52.184;5.942;2023-04-02T06:35:08;3;;;1;;
15504;SDS011;7854;52.184;5.942;2023-04-02T06:37:23;1;;;1;;
15504;SDS011;7854;52.184;5.942;2023-04-02T06:39:36;2;;;2;;
15504;SDS011;7854;52.184;5.942;2023-04-02T06:41:52;1;;;1;;
15504;SDS011;7854;52.184;5.942;2023-04-02T06:44:05;2;;;1;;
15504;SDS011;7854;52.184;5.942;2023-04-02T06:48:33;2;;;2;;
15504;SDS011;7854;52.184;5.942;2023-04-02T06:50:48;14;;;2;;
15504;SDS011;7854;52.184;5.942;2023-04-02T06:55:22;2;;;2;;
15504;SDS011;7854;52.184;5.942;2023-04-02T06:57:30;4;;;2;;
15504;SDS011;7854;52.184;5.942;2023-04-02T06:59:45;2;;;2;;
15504;SDS011;7854;52.184;5.942;2023-04-02T07:02:00;2;;;2;;
15504;SDS011;7854;52.184;5.942;2023-04-02T07:04:14;1;;;1;;
15504;SDS011;7854;52.184;5.942;2023-04-02T07:06:28;5;;;2;;
15504;SDS011;7854;52.184;5.942;2023-04-02T07:08:42;1;;;1;;
15504;SDS011;7854;52.184;5.942;2023-04-02T07:10:57;3;;;2;;
15504;SDS011;7854;52.184;5.942;2023-04-02T07:13:12;3;;;2;;
15504;SDS011;7854;52.184;5.942;2023-04-02T07:15:26;2;;;2;;
15504;SDS011;7854;52.184;5.942;2023-04-02T07:17:41;2;;;1;;
15504;SDS011;7854;52.184;5.942;2023-04-02T07:19:55;2;;;2;;
15504;SDS011;7854;52.184;5.942;2023-04-02T07:22:10;4;;;1;;
15504;SDS011;7854;52.184;5.942;2023-04-02T07:24:24;1;;;1;;
15504;SDS011;7854;52.184;5.942;2023-04-02T07:26:38;2;;;2;;
15504;SDS011;7854;52.184;5.942;2023-04-02T07:28:53;11;;;2;;
15504;SDS011;7854;52.184;5.942;2023-04-02T07:31:11;2;;;1;;
15504;SDS011;7854;52.184;5.942;2023-04-02T07:33:23;4;;;2;;
15504;SDS011;7854;52.184;5.942;2023-04-02T07:35:36;1;;;1;;
15504;SDS011;7854;52.184;5.942;2023-04-02T07:37:50;1;;;1;;
15504;SDS011;7854;52.184;5.942;2023-04-02T07:40:06;3;;;3;;
15504;SDS011;7854;52.184;5.942;2023-04-02T07:42:19;4;;;1;;
15504;SDS011;7854;52.184;5.942;2023-04-02T07:44:34;2;;;1;;
15504;SDS011;7854;52.184;5.942;2023-04-02T07:46:48;1;;;1;;
15504;SDS011;7854;52.184;5.942;2023-04-02T07:51:18;13;;;1;;
15504;SDS011;7854;52.184;5.942;2023-04-02T07:53:32;10;;;2;;
15504;SDS011;7854;52.184;5.942;2023-04-02T07:55:50;1;;;1;;
15504;SDS011;7854;52.184;5.942;2023-04-02T07:58:00;1;;;1;;
15504;SDS011;7854;52.184;5.942;2023-04-02T08:00:15;2;;;1;;
15504;SDS011;7854;52.184;5.942;2023-04-02T08:02:29;2;;;1;;
15504;SDS011;7854;52.184;5.942;2023-04-02T08:04:44;1;;;1;;
15504;SDS011;7854;52.184;5.942;2023-04-02T08:06:58;7;;;1;;
15504;SDS011;7854;52.184;5.942;2023-04-02T08:09:12;11;;;1;;
15504;SDS011;7854;52.184;5.942;2023-04-02T08:11:27;1;;;1;;
15504;SDS011;7854;52.184;5.942;2023-04-02T08:13:42;1;;;1;;
15504;SDS011;7854;52.184;5.942;2023-04-02T08:15:56;1;;;0;;
15504;SDS011;7854;52.184;5.942;2023-04-02T08:18:10;6;;;1;;
15504;SDS011;7854;52.184;5.942;2023-04-02T08:20:25;0;;;0;;
15504;SDS011;7854;52.184;5.942;2023-04-02T08:22:39;3;;;1;;
15504;SDS011;7854;52.184;5.942;2023-04-02T08:24:54;2;;;1;;
15504;SDS011;7854;52.184;5.942;2023-04-02T08:27:09;2;;;1;;
15504;SDS011;7854;52.184;5.942;2023-04-02T08:29:23;1;;;1;;
15504;SDS011;7854;52.184;5.942;2023-04-02T08:31:37;0;;;0;;
15504;SDS011;7854;52.184;5.942;2023-04-02T08:33:52;1;;;1;;
15504;SDS011;7854;52.184;5.942;2023-04-02T08:36:06;12;;;1;;
15504;SDS011;7854;52.184;5.942;2023-04-02T08:38:21;1;;;1;;
15504;SDS011;7854;52.184;5.942;2023-04-02T08:40:35;1;;;1;;
15504;SDS011;7854;52.184;5.942;2023-04-02T08:47:18;2;;;1;;
15504;SDS011;7854;52.184;5.942;2023-04-02T08:49:34;2;;;1;;
15504;SDS011;7854;52.184;5.942;2023-04-02T08:51:47;2;;;1;;
15504;SDS011;7854;52.184;5.942;2023-04-02T08:54:02;2;;;1;;
15504;SDS011;7854;52.184;5.942;2023-04-02T08:56:17;2;;;2;;
15504;SDS011;7854;52.184;5.942;2023-04-02T08:58:34;4;;;1;;
15504;SDS011;7854;52.184;5.942;2023-04-02T09:00:46;2;;;1;;
15504;SDS011;7854;52.184;5.942;2023-04-02T09:03:00;1;;;0;;
15504;SDS011;7854;52.184;5.942;2023-04-02T09:07:29;1;;;1;;
15504;SDS011;7854;52.184;5.942;2023-04-02T09:09:42;7;;;1;;
15504;SDS011;7854;52.184;5.942;2023-04-02T09:12:02;7;;;0;;
15504;SDS011;7854;52.184;5.942;2023-04-02T09:14:24;4;;;0;;
15504;SDS011;7854;52.184;5.942;2023-04-02T09:16:43;0;;;0;;
15504;SDS011;7854;52.184;5.942;2023-04-02T09:19:09;4;;;1;;
15504;SDS011;7854;52.184;5.942;2023-04-02T09:21:29;0;;;0;;
15504;SDS011;7854;52.184;5.942;2023-04-02T09:23:44;1;;;1;;
15504;SDS011;7854;52.184;5.942;2023-04-02T09:26:10;1;;;1;;
15504;SDS011;7854;52.184;5.942;2023-04-02T09:28:25;1;;;0;;
15504;SDS011;7854;52.184;5.942;2023-04-02T09:30:52;1;;;1;;
15504;SDS011;7854;52.184;5.942;2023-04-02T09:33:00;3;;;1;;
15504;SDS011;7854;52.184;5.942;2023-04-02T09:35:15;0;;;0;;
15504;SDS011;7854;52.184;5.942;2023-04-02T09:37:28;1;;;0;;
15504;SDS011;7854;52.184;5.942;2023-04-02T09:39:43;1;;;0;;
15504;SDS011;7854;52.184;5.942;2023-04-02T09:41:57;1;;;1;;
15504;SDS011;7854;52.184;5.942;2023-04-02T09:44:15;1;;;0;;
15504;SDS011;7854;52.184;5.942;2023-04-02T09:46:26;1;;;1;;
15504;SDS011;7854;52.184;5.942;2023-04-02T09:48:42;3;;;1;;
15504;SDS011;7854;52.184;5.942;2023-04-02T09:51:02;1;;;1;;
15504;SDS011;7854;52.184;5.942;2023-04-02T09:53:17;0;;;0;;
15504;SDS011;7854;52.184;5.942;2023-04-02T09:55:24;1;;;0;;
15504;SDS011;7854;52.184;5.942;2023-04-02T09:57:38;2;;;1;;
15504;SDS011;7854;52.184;5.942;2023-04-02T10:00:09;2;;;1;;
15504;SDS011;7854;52.184;5.942;2023-04-02T10:02:16;2;;;1;;
15504;SDS011;7854;52.184;5.942;2023-04-02T10:04:32;1;;;1;;
15504;SDS011;7854;52.184;5.942;2023-04-02T10:06:36;4;;;0;;
15504;SDS011;7854;52.184;5.942;2023-04-02T10:08:50;0;;;0;;
15504;SDS011;7854;52.184;5.942;2023-04-02T10:11:06;1;;;0;;
15504;SDS011;7854;52.184;5.942;2023-04-02T10:13:21;1;;;1;;
15504;SDS011;7854;52.184;5.942;2023-04-02T10:15:36;0;;;0;;
15504;SDS011;7854;52.184;5.942;2023-04-02T10:17:48;1;;;0;;
15504;SDS011;7854;52.184;5.942;2023-04-02T10:20:04;1;;;0;;
15504;SDS011;7854;52.184;5.942;2023-04-02T10:22:17;1;;;1;;
15504;SDS011;7854;52.184;5.942;2023-04-02T10:24:30;1;;;0;;
15504;SDS011;7854;52.184;5.942;2023-04-02T10:26:47;3;;;1;;
15504;SDS011;7854;52.184;5.942;2023-04-02T10:29:03;1;;;1;;
15504;SDS011;7854;52.184;5.942;2023-04-02T10:31:14;2;;;0;;
15504;SDS011;7854;52.184;5.942;2023-04-02T10:33:29;0;;;0;;
15504;SDS011;7854;52.184;5.942;2023-04-02T10:35:45;4;;;1;;
15504;SDS011;7854;52.184;5.942;2023-04-02T10:38:01;1;;;0;;
15504;SDS011;7854;52.184;5.942;2023-04-02T10:40:13;2;;;1;;
15504;SDS011;7854;52.184;5.942;2023-04-02T10:42:28;1;;;1;;
15504;SDS011;7854;52.184;5.942;2023-04-02T10:44:42;1;;;1;;
15504;SDS011;7854;52.184;5.942;2023-04-02T10:46:59;6;;;0;;
15504;SDS011;7854;52.184;5.942;2023-04-02T10:49:12;0;;;0;;
15504;SDS011;7854;52.184;5.942;2023-04-02T10:51:27;1;;;1;;
15504;SDS011;7854;52.184;5.942;2023-04-02T10:53:39;1;;;0;;
15504;SDS011;7854;52.184;5.942;2023-04-02T10:55:52;1;;;0;;
15504;SDS011;7854;52.184;5.942;2023-04-02T10:58:07;4;;;1;;
15504;SDS011;7854;52.184;5.942;2023-04-02T11:00:21;0;;;0;;
15504;SDS011;7854;52.184;5.942;2023-04-02T11:02:37;1;;;0;;
15504;SDS011;7854;52.184;5.942;2023-04-02T11:04:49;1;;;0;;
15504;SDS011;7854;52.184;5.942;2023-04-02T11:07:05;1;;;1;;
15504;SDS011;7854;52.184;5.942;2023-04-02T11:09:20;1;;;1;;
15504;SDS011;7854;52.184;5.942;2023-04-02T11:11:34;1;;;0;;
15504;SDS011;7854;52.184;5.942;2023-04-02T11:13:49;1;;;0;;
15504;SDS011;7854;52.184;5.942;2023-04-02T11:16:02;3;;;1;;
15504;SDS011;7854;52.184;5.942;2023-04-02T11:18:19;0;;;0;;
15504;SDS011;7854;52.184;5.942;2023-04-02T11:21:58;0;;;0;;
15504;SDS011;7854;52.184;5.942;2023-04-02T11:22:48;1;;;0;;
15504;SDS011;7854;52.184;5.942;2023-04-02T11:25:00;2;;;0;;
15504;SDS011;7854;52.184;5.942;2023-04-02T11:27:16;2;;;1;;
15504;SDS011;7854;52.184;5.942;2023-04-02T11:29:28;1;;;0;;
15504;SDS011;7854;52.184;5.942;2023-04-02T11:31:43;0;;;0;;
15504;SDS011;7854;52.184;5.942;2023-04-02T11:33:57;3;;;0;;
15504;SDS011;7854;52.184;5.942;2023-04-02T11:40:41;1;;;1;;
15504;SDS011;7854;52.184;5.942;2023-04-02T11:42:54;0;;;0;;
15504;SDS011;7854;52.184;5.942;2023-04-02T11:49:38;1;;;0;;
15504;SDS011;7854;52.184;5.942;2023-04-02T11:51:52;1;;;0;;
15504;SDS011;7854;52.184;5.942;2023-04-02T11:54:19;1;;;1;;
15504;SDS011;7854;52.184;5.942;2023-04-02T11:56:25;6;;;0;;
15504;SDS011;7854;52.184;5.942;2023-04-02T11:58:39;0;;;0;;
15504;SDS011;7854;52.184;5.942;2023-04-02T12:00:55;1;;;0;;
15504;SDS011;7854;52.184;5.942;2023-04-02T12:03:11;2;;;1;;
15504;SDS011;7854;52.184;5.942;2023-04-02T12:05:18;1;;;0;;
15504;SDS011;7854;52.184;5.942;2023-04-02T12:07:34;1;;;0;;
15504;SDS011;7854;52.184;5.942;2023-04-02T12:09:48;1;;;0;;
15504;SDS011;7854;52.184;5.942;2023-04-02T12:12:15;1;;;1;;
15504;SDS011;7854;52.184;5.942;2023-04-02T12:14:36;0;;;0;;
15504;SDS011;7854;52.184;5.942;2023-04-02T12:16:32;1;;;1;;
15504;SDS011;7854;52.184;5.942;2023-04-02T12:18:45;2;;;1;;
15504;SDS011;7854;52.184;5.942;2023-04-02T12:20:59;2;;;1;;
15504;SDS011;7854;52.184;5.942;2023-04-02T12:23:21;1;;;0;;
15504;SDS011;7854;52.184;5.942;2023-04-02T12:25:29;1;;;0;;
15504;SDS011;7854;52.184;5.942;2023-04-02T12:27:42;1;;;1;;
15504;SDS011;7854;52.184;5.942;2023-04-02T12:30:10;1;;;1;;
15504;SDS011;7854;52.184;5.942;2023-04-02T12:32:17;1;;;0;;
15504;SDS011;7854;52.184;5.942;2023-04-02T12:34:26;1;;;1;;
15504;SDS011;7854;52.184;5.942;2023-04-02T12:36:40;0;;;0;;
15504;SDS011;7854;52.184;5.942;2023-04-02T12:38:55;1;;;0;;
15504;SDS011;7854;52.184;5.942;2023-04-02T12:41:18;0;;;0;;
15504;SDS011;7854;52.184;5.942;2023-04-02T12:43:25;4;;;1;;
15504;SDS011;7854;52.184;5.942;2023-04-02T12:45:38;1;;;1;;
15504;SDS011;7854;52.184;5.942;2023-04-02T12:47:52;2;;;0;;
15504;SDS011;7854;52.184;5.942;2023-04-02T12:50:11;1;;;0;;
15504;SDS011;7854;52.184;5.942;2023-04-02T12:52:22;2;;;0;;
15504;SDS011;7854;52.184;5.942;2023-04-02T12:54:37;0;;;0;;
15504;SDS011;7854;52.184;5.942;2023-04-02T12:56:50;0;;;0;;
15504;SDS011;7854;52.184;5.942;2023-04-02T12:59:03;0;;;0;;
15504;SDS011;7854;52.184;5.942;2023-04-02T13:01:18;2;;;0;;
15504;SDS011;7854;52.184;5.942;2023-04-02T13:03:32;0;;;0;;
15504;SDS011;7854;52.184;5.942;2023-04-02T13:05:48;1;;;0;;
15504;SDS011;7854;52.184;5.942;2023-04-02T13:08:02;0;;;0;;
15504;SDS011;7854;52.184;5.942;2023-04-02T13:10:21;0;;;0;;
15504;SDS011;7854;52.184;5.942;2023-04-02T13:12:31;1;;;1;;
15504;SDS011;7854;52.184;5.942;2023-04-02T13:14:44;0;;;0;;
15504;SDS011;7854;52.184;5.942;2023-04-02T13:16:59;0;;;0;;
15504;SDS011;7854;52.184;5.942;2023-04-02T13:19:20;1;;;0;;
15504;SDS011;7854;52.184;5.942;2023-04-02T13:21:29;2;;;1;;
15504;SDS011;7854;52.184;5.942;2023-04-02T13:23:42;3;;;0;;
15504;SDS011;7854;52.184;5.942;2023-04-02T13:25:56;1;;;1;;
15504;SDS011;7854;52.184;5.942;2023-04-02T13:28:10;4;;;0;;
15504;SDS011;7854;52.184;5.942;2023-04-02T13:30:26;1;;;0;;
15504;SDS011;7854;52.184;5.942;2023-04-02T13:32:39;0;;;0;;
15504;SDS011;7854;52.184;5.942;2023-04-02T13:34:53;0;;;0;;
15504;SDS011;7854;52.184;5.942;2023-04-02T13:37:08;1;;;1;;
15504;SDS011;7854;52.184;5.942;2023-04-02T13:39:22;1;;;0;;
15504;SDS011;7854;52.184;5.942;2023-04-02T13:41:38;1;;;1;;
15504;SDS011;7854;52.184;5.942;2023-04-02T13:43:50;1;;;1;;
15504;SDS011;7854;52.184;5.942;2023-04-02T13:46:05;1;;;1;;
15504;SDS011;7854;52.184;5.942;2023-04-02T13:48:19;2;;;1;;
15504;SDS011;7854;52.184;5.942;2023-04-02T13:50:35;1;;;0;;
15504;SDS011;7854;52.184;5.942;2023-04-02T13:52:49;1;;;0;;
15504;SDS011;7854;52.184;5.942;2023-04-02T13:55:03;1;;;0;;
15504;SDS011;7854;52.184;5.942;2023-04-02T13:57:17;1;;;0;;
15504;SDS011;7854;52.184;5.942;2023-04-02T13:59:32;4;;;0;;
15504;SDS011;7854;52.184;5.942;2023-04-02T14:01:46;1;;;0;;
15504;SDS011;7854;52.184;5.942;2023-04-02T14:04:00;0;;;0;;
15504;SDS011;7854;52.184;5.942;2023-04-02T14:06:17;2;;;0;;
15504;SDS011;7854;52.184;5.942;2023-04-02T14:08:32;1;;;0;;
15504;SDS011;7854;52.184;5.942;2023-04-02T14:10:49;3;;;0;;
15504;SDS011;7854;52.184;5.942;2023-04-02T14:13:02;1;;;0;;
15504;SDS011;7854;52.184;5.942;2023-04-02T14:15:18;5;;;0;;
15504;SDS011;7854;52.184;5.942;2023-04-02T14:17:28;0;;;0;;
15504;SDS011;7854;52.184;5.942;2023-04-02T14:19:47;0;;;0;;
15504;SDS011;7854;52.184;5.942;2023-04-02T14:21:58;0;;;0;;
15504;SDS011;7854;52.184;5.942;2023-04-02T14:24:14;9;;;1;;
15504;SDS011;7854;52.184;5.942;2023-04-02T14:26:26;1;;;0;;
15504;SDS011;7854;52.184;5.942;2023-04-02T14:28:40;1;;;0;;
15504;SDS011;7854;52.184;5.942;2023-04-02T14:30:56;2;;;1;;
15504;SDS011;7854;52.184;5.942;2023-04-02T14:33:08;2;;;1;;
15504;SDS011;7854;52.184;5.942;2023-04-02T14:35:23;1;;;0;;
15504;SDS011;7854;52.184;5.942;2023-04-02T14:37:38;0;;;0;;
15504;SDS011;7854;52.184;5.942;2023-04-02T14:39:54;1;;;1;;
15504;SDS011;7854;52.184;5.942;2023-04-02T14:42:08;1;;;0;;
15504;SDS011;7854;52.184;5.942;2023-04-02T14:44:21;2;;;1;;
15504;SDS011;7854;52.184;5.942;2023-04-02T14:46:35;2;;;1;;
15504;SDS011;7854;52.184;5.942;2023-04-02T14:48:50;0;;;0;;
15504;SDS011;7854;52.184;5.942;2023-04-02T14:51:04;0;;;0;;
15504;SDS011;7854;52.184;5.942;2023-04-02T14:53:19;0;;;0;;
15504;SDS011;7854;52.184;5.942;2023-04-02T14:55:33;0;;;0;;
15504;SDS011;7854;52.184;5.942;2023-04-02T14:57:48;0;;;0;;
15504;SDS011;7854;52.184;5.942;2023-04-02T15:00:06;1;;;1;;
15504;SDS011;7854;52.184;5.942;2023-04-02T15:02:17;0;;;0;;
15504;SDS011;7854;52.184;5.942;2023-04-02T15:04:31;0;;;0;;
15504;SDS011;7854;52.184;5.942;2023-04-02T15:06:46;0;;;0;;
15504;SDS011;7854;52.184;5.942;2023-04-02T15:09:00;5;;;0;;
15504;SDS011;7854;52.184;5.942;2023-04-02T15:11:14;0;;;0;;
15504;SDS011;7854;52.184;5.942;2023-04-02T15:13:30;3;;;1;;
15504;SDS011;7854;52.184;5.942;2023-04-02T15:15:43;1;;;0;;
15504;SDS011;7854;52.184;5.942;2023-04-02T15:17:57;2;;;1;;
15504;SDS011;7854;52.184;5.942;2023-04-02T15:20:12;0;;;0;;
15504;SDS011;7854;52.184;5.942;2023-04-02T15:22:28;1;;;0;;
15504;SDS011;7854;52.184;5.942;2023-04-02T15:24:43;0;;;0;;
15504;SDS011;7854;52.184;5.942;2023-04-02T15:26:57;0;;;0;;
15504;SDS011;7854;52.184;5.942;2023-04-02T15:29:11;0;;;0;;